Aviation Digital Data Service (ADDS)

Output produced by METARs form (0950 UTC 23 July 2019)
found at http://www.aviationweather.gov/metar/data/
 
Forecast for: WIMM (MEDAN/POLONIA (M, ID)
Text: TAF WIMM 230500Z 2306/2406 08007KT 9999 SCT020
Forecast period: 0600 to 1000 UTC 23 July 2019
Forecast type: FROM: standard forecast or significant change
Winds: from the E (80 degrees) at 8 MPH (7 knots; 3.6 m/s)
Visibility: 6 or more miles 10+ km)
Ceiling: at least 12,000 feet AGL
Clouds: scattered clouds at 2000 feet AGL
Weather: no significant weather forecast for this period
Text: BECMG 2310/2312 VRB04KT 5000 HZ SCT018
Forecast period: 1000 UTC 23 July 2019 to 0600 UTC 24 July 2019
Forecast type: BECOMING: Conditions expected to become as follows by 1200 UTC 23 July 2019
Winds: variable direction winds at 5 MPH (4 knots; 2.1 m/s)
Visibility: 3 miles (5 km)
Ceiling: at least 12,000 feet AGL
Clouds: scattered clouds at 1800 feet AGL
Weather: HZ  (haze)
Text: TEMPO 2322/2401 -TSRA FEW016CB SCT017
Forecast period: 2200 UTC 23 July 2019 to 0100 UTC 24 July 2019
Forecast type: TEMPORARY: The following changes expected for less than half the time period
Visibility: missing
Ceiling: at least 12,000 feet AGL
Clouds: few clouds at 1600 feet AGL
scattered clouds at 1700 feet AGL
Weather: -TSRA  (light rain associated with thunderstorm(s))